Laclede, Idaho
Current Conditions -  °F | °C
As of 12:15 AM on Thursday 29 Jan 2015 (Local Time) from KSZT Reporting Station
Moderate Fog Moderate Fog  
Wind Chill: 26°   Ceiling: 200
Heat Index: 32°   Visibility: 0.25mi
Dew Point: 32°   Wind: 6mph
Humidity: 100%   Direction: 20°NNE
Pressure: 30.47"   Gusts: NA
Location:  48.17°N, 116.75°W
Report Text: KSZT 290815Z AUTO 02005KT 1/4SM FZFG OVC002 00/00 A3047 RMK AO2
Loading
Personal Weather Stations






























Interactive Weather Map New forecast layout! Learn more

10-Day Weather Forecast

Advertisements
Track Severe Weather on mobile